createdAt,value
2023-01-23T00:01:30.707Z,35.70
2023-01-23T00:03:58.588Z,32.22
2023-01-23T00:06:27.117Z,35.10
2023-01-23T00:08:56.692Z,36.72
2023-01-23T00:11:26.771Z,37.45
2023-01-23T00:13:54.191Z,35.20
2023-01-23T00:16:23.714Z,36.17
2023-01-23T00:18:52.196Z,37.60
2023-01-23T00:21:22.430Z,35.20
2023-01-23T00:23:55.253Z,41.42
2023-01-23T00:26:25.378Z,38.97
2023-01-23T00:28:53.508Z,41.95
2023-01-23T00:31:25.264Z,39.00
2023-01-23T00:33:58.774Z,44.55
2023-01-23T00:36:32.024Z,38.35
2023-01-23T00:39:00.279Z,38.85
2023-01-23T00:41:28.255Z,39.45
2023-01-23T00:43:55.695Z,36.33
2023-01-23T00:46:23.664Z,36.15
2023-01-23T00:48:51.457Z,30.60
2023-01-23T00:51:19.146Z,30.60
2023-01-23T00:53:46.984Z,32.25
2023-01-23T00:56:14.447Z,29.77
2023-01-23T00:58:44.088Z,31.67
2023-01-23T01:01:13.945Z,32.55
2023-01-23T01:03:42.361Z,29.45
2023-01-23T01:06:10.533Z,30.17
2023-01-23T01:08:38.725Z,31.70
2023-01-23T01:11:06.792Z,31.92
2023-01-23T01:13:34.505Z,26.87
2023-01-23T01:16:02.393Z,29.83
2023-01-23T01:18:30.151Z,25.62
2023-01-23T01:20:58.083Z,26.10
2023-01-23T01:23:26.057Z,32.42
2023-01-23T01:25:53.599Z,28.60
2023-01-23T01:28:21.450Z,22.73
2023-01-23T01:30:49.183Z,26.52
2023-01-23T01:33:16.655Z,28.58
2023-01-23T01:35:44.524Z,23.65
2023-01-23T01:38:12.821Z,23.95
2023-01-23T01:40:40.238Z,26.98
2023-01-23T01:43:15.615Z,26.42
2023-01-23T01:46:13.238Z,24.90
2023-01-23T01:49:17.157Z,22.62
2023-01-23T01:51:52.308Z,22.80
2023-01-23T01:56:55.111Z,23.20
2023-01-23T01:59:24.372Z,21.48
2023-01-23T02:01:57.209Z,21.70
2023-01-23T02:04:25.201Z,24.63
2023-01-23T02:06:52.889Z,23.75
2023-01-23T02:09:26.026Z,24.80
2023-01-23T02:11:54.417Z,24.42
2023-01-23T02:14:25.730Z,23.98
2023-01-23T02:16:56.068Z,21.27
2023-01-23T02:19:39.067Z,25.33
2023-01-23T02:22:49.528Z,24.00
2023-01-23T02:25:22.221Z,21.95
2023-01-23T02:27:49.654Z,26.48
2023-01-23T02:30:18.769Z,20.30
2023-01-23T02:32:46.907Z,23.60
2023-01-23T02:35:25.495Z,18.55
2023-01-23T02:37:56.509Z,23.25
2023-01-23T02:40:36.551Z,23.20
2023-01-23T02:43:05.806Z,23.10
2023-01-23T02:45:34.448Z,22.15
2023-01-23T02:48:01.990Z,21.50
2023-01-23T02:50:29.724Z,20.48
2023-01-23T02:52:58.488Z,19.40
2023-01-23T02:55:33.889Z,18.98
2023-01-23T02:58:20.756Z,19.92
2023-01-23T03:00:49.709Z,19.23
2023-01-23T03:03:17.493Z,17.00
2023-01-23T03:05:44.947Z,16.77
2023-01-23T03:08:12.442Z,15.75
2023-01-23T03:10:40.184Z,16.37
2023-01-23T03:13:09.219Z,19.60
2023-01-23T03:15:38.514Z,16.80
2023-01-23T03:18:06.435Z,17.23
2023-01-23T03:20:41.278Z,19.10
2023-01-23T03:23:09.156Z,15.50
2023-01-23T03:25:36.570Z,10.43
2023-01-23T03:28:24.200Z,12.00
2023-01-23T03:30:52.205Z,12.52
2023-01-23T03:33:19.695Z,10.48
2023-01-23T03:35:47.299Z,9.05
2023-01-23T03:38:18.032Z,11.70
2023-01-23T03:41:04.295Z,12.10
2023-01-23T03:43:32.977Z,9.98
2023-01-23T03:46:00.428Z,9.07
2023-01-23T03:48:28.794Z,10.60
2023-01-23T03:50:56.744Z,11.88
2023-01-23T03:53:25.232Z,13.55
2023-01-23T03:55:53.312Z,10.98
2023-01-23T03:58:21.156Z,12.27
2023-01-23T04:00:48.911Z,13.10
2023-01-23T04:03:16.950Z,10.35
2023-01-23T04:05:44.366Z,13.82
2023-01-23T04:08:11.790Z,10.88
2023-01-23T04:10:39.623Z,11.75
2023-01-23T04:13:10.317Z,10.60
2023-01-23T04:15:38.358Z,10.90
2023-01-23T04:18:06.272Z,11.80
2023-01-23T04:20:33.797Z,12.40
2023-01-23T04:23:01.203Z,15.20
2023-01-23T04:25:29.830Z,16.90
2023-01-23T04:27:57.505Z,16.62
2023-01-23T04:30:25.420Z,10.90
2023-01-23T04:32:53.334Z,14.35
2023-01-23T04:35:20.873Z,10.95
2023-01-23T04:37:48.360Z,9.15
2023-01-23T04:40:17.263Z,12.55
2023-01-23T04:42:46.027Z,10.38
2023-01-23T04:45:13.824Z,8.40
2023-01-23T04:47:45.543Z,8.95
2023-01-23T04:50:13.954Z,7.25
2023-01-23T04:52:42.017Z,9.60
2023-01-23T04:55:09.990Z,6.62
2023-01-23T04:57:37.622Z,5.25
2023-01-23T05:00:06.093Z,5.75
2023-01-23T05:02:33.831Z,5.95
2023-01-23T05:05:01.921Z,4.47
2023-01-23T05:07:29.491Z,5.65
2023-01-23T05:09:58.161Z,6.47
2023-01-23T05:12:25.668Z,5.25
2023-01-23T05:14:53.154Z,4.90
2023-01-23T05:17:21.024Z,4.47
2023-01-23T05:19:48.501Z,4.68
2023-01-23T05:22:15.925Z,5.35
2023-01-23T05:24:44.209Z,5.25
2023-01-23T05:27:12.919Z,5.47
2023-01-23T05:29:40.582Z,4.12
2023-01-23T05:32:08.618Z,4.28
2023-01-23T05:34:39.239Z,4.37
2023-01-23T05:37:07.849Z,3.97
2023-01-23T05:39:35.566Z,5.15
2023-01-23T05:42:03.907Z,3.83
2023-01-23T05:44:31.836Z,4.35
2023-01-23T05:47:00.230Z,5.25
2023-01-23T05:49:27.937Z,4.30
2023-01-23T05:51:56.396Z,4.62
2023-01-23T05:54:24.405Z,4.72
2023-01-23T05:56:52.205Z,4.35
2023-01-23T05:59:34.960Z,4.37
2023-01-23T06:02:02.857Z,4.93
2023-01-23T06:04:34.764Z,4.80
2023-01-23T06:07:02.850Z,3.85
2023-01-23T06:09:30.523Z,5.60
2023-01-23T06:11:59.166Z,4.60
2023-01-23T06:14:26.735Z,5.25
2023-01-23T06:16:54.267Z,5.90
2023-01-23T06:19:22.264Z,4.43
2023-01-23T06:21:50.020Z,3.85
2023-01-23T06:24:18.687Z,5.15
2023-01-23T06:26:46.882Z,4.37
2023-01-23T06:29:14.375Z,3.72
2023-01-23T06:31:41.969Z,3.95
2023-01-23T06:34:09.881Z,5.25
2023-01-23T06:36:37.821Z,4.07
2023-01-23T06:39:05.298Z,5.32
2023-01-23T06:41:33.443Z,4.57
2023-01-23T06:44:01.638Z,5.35
2023-01-23T06:46:29.244Z,5.60
2023-01-23T06:48:57.175Z,4.87
2023-01-23T06:51:24.715Z,5.07
2023-01-23T06:53:52.294Z,5.62
2023-01-23T06:56:19.993Z,5.70
2023-01-23T06:58:48.761Z,11.32
2023-01-23T07:01:19.400Z,12.32
2023-01-23T07:03:50.258Z,6.32
2023-01-23T07:06:18.970Z,5.93
2023-01-23T07:08:46.900Z,6.12
2023-01-23T07:11:14.708Z,6.53
2023-01-23T07:13:42.177Z,5.93
2023-01-23T07:16:09.688Z,6.15
2023-01-23T07:18:38.321Z,5.60
2023-01-23T07:21:07.757Z,6.45
2023-01-23T07:23:35.336Z,4.68
2023-01-23T07:26:09.403Z,6.93
2023-01-23T07:28:37.559Z,7.32
2023-01-23T07:31:05.818Z,5.07
2023-01-23T07:33:33.800Z,7.20
2023-01-23T07:36:01.253Z,4.25
2023-01-23T07:38:29.031Z,5.25
2023-01-23T07:40:58.788Z,5.80
2023-01-23T07:43:27.089Z,7.00
2023-01-23T07:45:55.057Z,7.68
2023-01-23T07:48:22.484Z,6.47
2023-01-23T07:50:49.932Z,6.35
2023-01-23T07:53:17.796Z,6.78
2023-01-23T07:55:45.431Z,8.07
2023-01-23T07:58:12.861Z,6.07
2023-01-23T08:00:41.910Z,6.95
2023-01-23T08:03:09.688Z,7.32
2023-01-23T08:05:37.388Z,9.60
2023-01-23T08:08:13.168Z,6.82
2023-01-23T08:10:41.837Z,7.00
2023-01-23T08:13:09.527Z,8.25
2023-01-23T08:15:38.889Z,6.12
2023-01-23T08:18:06.937Z,7.68
2023-01-23T08:20:34.735Z,6.07
2023-01-23T08:23:02.467Z,6.45
2023-01-23T08:25:30.505Z,6.32
2023-01-23T08:27:58.297Z,7.18
2023-01-23T08:30:25.923Z,7.18
2023-01-23T08:32:54.155Z,5.37
2023-01-23T08:35:21.546Z,6.28
2023-01-23T08:37:49.030Z,5.90
2023-01-23T08:40:17.102Z,6.75
2023-01-23T08:42:44.530Z,6.97
2023-01-23T08:45:11.975Z,7.03
2023-01-23T08:47:39.742Z,6.53
2023-01-23T08:50:07.995Z,6.87
2023-01-23T08:52:35.790Z,6.43
2023-01-23T08:55:03.704Z,6.80
2023-01-23T08:57:31.445Z,7.70
2023-01-23T09:00:01.361Z,8.32
2023-01-23T09:02:35.692Z,6.37
2023-01-23T09:05:03.532Z,7.18
2023-01-23T09:07:31.436Z,9.38
2023-01-23T09:09:59.738Z,9.40
2023-01-23T09:12:27.251Z,8.40
2023-01-23T09:14:55.141Z,6.22
2023-01-23T09:17:22.602Z,6.60
2023-01-23T09:19:50.205Z,7.75
2023-01-23T09:22:18.199Z,9.35
2023-01-23T09:24:45.690Z,7.30
2023-01-23T09:27:13.575Z,8.55
2023-01-23T09:29:41.310Z,9.55
2023-01-23T09:32:09.307Z,9.50
2023-01-23T09:34:36.722Z,6.72
2023-01-23T09:37:04.592Z,9.88
2023-01-23T09:39:32.015Z,7.90
2023-01-23T09:42:08.447Z,9.10
2023-01-23T09:44:41.709Z,6.82
2023-01-23T09:47:16.437Z,9.30
2023-01-23T09:49:45.484Z,7.72
2023-01-23T09:52:23.449Z,7.45
2023-01-23T09:54:59.555Z,7.70
2023-01-23T09:57:45.774Z,10.00
2023-01-23T10:00:40.459Z,9.07
2023-01-23T10:03:14.315Z,6.72
2023-01-23T10:05:56.399Z,6.62
2023-01-23T10:08:34.205Z,8.10
2023-01-23T10:11:07.637Z,8.27
2023-01-23T10:13:59.736Z,6.90
2023-01-23T10:16:50.590Z,6.60
2023-01-23T10:19:42.997Z,7.82
2023-01-23T10:22:28.922Z,7.65
2023-01-23T10:24:57.718Z,7.18
2023-01-23T10:27:34.865Z,10.90
2023-01-23T10:30:21.388Z,6.93
2023-01-23T10:32:57.999Z,10.10
2023-01-23T10:35:37.010Z,8.25
2023-01-23T10:38:12.467Z,7.28
2023-01-23T10:40:58.915Z,7.50
2023-01-23T10:43:26.690Z,6.65
2023-01-23T10:45:54.596Z,8.40
2023-01-23T10:48:33.916Z,9.90
2023-01-23T10:51:01.643Z,7.57
2023-01-23T10:53:29.445Z,7.53
2023-01-23T10:55:59.671Z,6.78
2023-01-23T10:58:37.625Z,8.63
2023-01-23T11:01:06.609Z,9.77
2023-01-23T11:03:38.802Z,7.93
2023-01-23T11:06:07.157Z,7.80
2023-01-23T11:08:36.476Z,9.52
2023-01-23T11:11:17.568Z,7.72
2023-01-23T11:13:48.020Z,11.23
2023-01-23T11:16:18.818Z,11.23
2023-01-23T11:19:11.597Z,9.82
2023-01-23T11:22:00.368Z,9.57
2023-01-23T11:24:46.972Z,7.68
2023-01-23T11:27:14.651Z,8.85
2023-01-23T11:30:08.690Z,9.57
2023-01-23T11:32:43.430Z,7.40
2023-01-23T11:35:15.289Z,7.53
2023-01-23T11:37:42.830Z,7.87
2023-01-23T11:40:17.394Z,8.32
2023-01-23T11:42:45.688Z,7.80
2023-01-23T11:45:43.765Z,7.55
2023-01-23T11:48:29.941Z,7.97
2023-01-23T11:51:16.621Z,7.15
2023-01-23T11:54:07.998Z,7.37
2023-01-23T11:57:03.132Z,7.25
2023-01-23T11:59:45.221Z,5.05
2023-01-23T12:02:12.610Z,5.68
2023-01-23T12:04:58.827Z,7.60
2023-01-23T12:07:26.743Z,5.07
2023-01-23T12:10:03.653Z,7.07
2023-01-23T12:12:46.369Z,5.43
2023-01-23T12:15:20.762Z,6.10
2023-01-23T12:17:58.155Z,6.15
2023-01-23T12:20:39.474Z,5.70
2023-01-23T12:23:26.895Z,8.52
2023-01-23T12:26:12.820Z,7.60
2023-01-23T12:28:58.967Z,5.22
2023-01-23T12:31:53.377Z,6.57
2023-01-23T12:34:32.978Z,6.53
2023-01-23T12:37:30.426Z,5.85
2023-01-23T12:40:03.728Z,5.40
2023-01-23T12:42:38.715Z,6.72
2023-01-23T12:45:15.512Z,6.22
2023-01-23T12:48:00.179Z,5.35
2023-01-23T12:50:34.320Z,6.32
2023-01-23T12:53:25.980Z,5.50
2023-01-23T12:56:04.471Z,6.62
2023-01-23T12:58:36.360Z,5.22
2023-01-23T13:01:22.697Z,5.32
2023-01-23T13:03:58.406Z,6.62
2023-01-23T13:06:31.977Z,7.28
2023-01-23T13:09:24.632Z,5.20
2023-01-23T13:12:11.615Z,6.32
2023-01-23T13:15:06.772Z,5.22
2023-01-23T13:17:47.360Z,5.90
2023-01-23T13:20:40.355Z,5.85
2023-01-23T13:23:29.045Z,5.82
2023-01-23T13:26:15.276Z,7.95
2023-01-23T13:28:53.907Z,5.60
2023-01-23T13:31:34.359Z,6.50
2023-01-23T13:34:17.355Z,4.57
2023-01-23T13:36:53.145Z,5.87
2023-01-23T13:39:31.418Z,6.22
2023-01-23T13:42:14.622Z,5.30
2023-01-23T13:45:16.235Z,6.82
2023-01-23T14:22:35.522Z,7.90
2023-01-23T14:25:03.577Z,7.05
2023-01-23T14:27:53.230Z,6.32
2023-01-23T14:30:27.442Z,7.62
2023-01-23T14:32:55.307Z,7.18
2023-01-23T14:35:30.937Z,5.37
2023-01-23T14:38:01.528Z,7.03
2023-01-23T14:40:37.313Z,6.82
2023-01-23T14:43:23.193Z,8.05
2023-01-23T14:45:59.312Z,6.57
2023-01-23T14:48:27.258Z,6.00
2023-01-23T14:51:03.649Z,7.20
2023-01-23T14:53:31.381Z,6.28
2023-01-23T14:56:00.819Z,6.28
2023-01-23T14:58:29.042Z,5.32
2023-01-23T15:01:00.916Z,7.80
2023-01-23T15:03:43.909Z,7.78
2023-01-23T15:06:21.097Z,7.12
2023-01-23T15:08:49.839Z,6.32
2023-01-23T15:11:25.075Z,6.72
2023-01-23T15:14:01.414Z,6.87
2023-01-23T15:16:33.988Z,6.87
2023-01-23T15:19:22.100Z,5.50
2023-01-23T15:21:49.609Z,7.78
2023-01-23T15:24:29.588Z,8.05
2023-01-23T15:27:03.826Z,8.23
2023-01-23T15:29:32.477Z,6.12
2023-01-23T15:32:00.351Z,6.93
2023-01-23T15:34:31.060Z,5.50
2023-01-23T15:37:00.879Z,6.55
2023-01-23T15:39:31.525Z,6.50
2023-01-23T15:42:26.197Z,6.87
2023-01-23T15:44:53.982Z,7.43
2023-01-23T15:47:21.773Z,7.30
2023-01-23T15:49:49.408Z,6.65
2023-01-23T15:52:25.464Z,8.18
2023-01-23T15:55:04.719Z,8.38
2023-01-23T15:57:32.557Z,7.95
2023-01-23T16:00:01.302Z,9.35
2023-01-23T16:02:31.607Z,10.05
2023-01-23T16:05:01.864Z,8.10
2023-01-23T16:07:34.919Z,6.75
2023-01-23T16:10:04.714Z,7.30
2023-01-23T16:12:35.568Z,8.43
2023-01-23T16:15:06.372Z,10.25
2023-01-23T16:17:34.060Z,26.10
2023-01-23T16:20:01.600Z,9.00
2023-01-23T16:22:29.589Z,11.18
2023-01-23T16:24:57.881Z,12.43
2023-01-23T16:27:27.727Z,9.13
2023-01-23T16:29:56.267Z,8.95
2023-01-23T16:32:25.293Z,8.02
2023-01-23T16:34:52.912Z,6.37
2023-01-23T16:37:20.943Z,9.60
2023-01-23T16:39:48.504Z,9.38
2023-01-23T16:42:19.939Z,8.60
2023-01-23T16:44:47.864Z,9.73
2023-01-23T16:47:15.459Z,11.43
2023-01-23T16:49:51.964Z,8.50
2023-01-23T16:52:24.636Z,9.48
2023-01-23T16:54:53.453Z,8.90
2023-01-23T16:57:22.321Z,13.35
2023-01-23T16:59:51.019Z,10.93
2023-01-23T17:02:29.602Z,11.23
2023-01-23T17:04:57.655Z,9.45
2023-01-23T17:07:25.595Z,10.00
2023-01-23T17:09:54.224Z,11.70
2023-01-23T17:12:28.037Z,12.50
2023-01-23T17:14:56.777Z,9.32
2023-01-23T17:17:32.343Z,8.35
2023-01-23T17:20:02.094Z,10.15
2023-01-23T17:22:35.403Z,10.27
2023-01-23T17:25:03.827Z,13.73
2023-01-23T17:27:41.730Z,11.85
2023-01-23T17:30:24.190Z,18.80
2023-01-23T17:32:55.976Z,16.30
2023-01-23T17:35:27.972Z,13.77
2023-01-23T17:37:58.196Z,12.13
2023-01-23T17:40:26.960Z,9.55
2023-01-23T17:42:56.323Z,10.82
2023-01-23T17:45:27.495Z,12.90
2023-01-23T17:47:56.922Z,16.67
2023-01-23T17:50:28.965Z,18.48
2023-01-23T17:52:58.529Z,18.50
2023-01-23T17:55:33.874Z,18.90
2023-01-23T17:58:02.240Z,12.85
2023-01-23T18:00:32.124Z,14.00
2023-01-23T18:03:03.703Z,18.52
2023-01-23T18:05:32.531Z,18.42
2023-01-23T18:08:01.934Z,22.77
2023-01-23T18:10:30.372Z,29.98
2023-01-23T18:13:11.184Z,38.63
2023-01-23T18:15:56.974Z,31.50
2023-01-23T18:18:34.165Z,25.60
2023-01-23T18:21:05.321Z,24.37
2023-01-23T18:23:37.877Z,23.73
2023-01-23T18:26:30.966Z,25.58
2023-01-23T18:29:24.190Z,29.08
2023-01-23T18:32:25.320Z,24.67
2023-01-23T18:35:01.835Z,25.33
2023-01-23T18:37:52.968Z,25.37
2023-01-23T18:40:42.280Z,33.78
2023-01-23T18:43:44.298Z,38.72
2023-01-23T18:46:15.991Z,53.58
2023-01-23T18:48:47.506Z,57.65
2023-01-23T18:51:54.744Z,50.58
2023-01-23T18:54:32.826Z,53.20
2023-01-23T18:57:26.531Z,46.53
2023-01-23T19:00:24.892Z,41.13
2023-01-23T19:03:01.067Z,40.53
2023-01-23T19:05:32.898Z,47.72
2023-01-23T19:08:02.600Z,53.97
2023-01-23T19:10:47.603Z,55.00
2023-01-23T19:13:48.494Z,53.95
2023-01-23T19:16:30.992Z,49.38
2023-01-23T19:19:15.874Z,44.42
2023-01-23T19:24:19.082Z,46.28
2023-01-23T19:26:48.260Z,45.15
2023-01-23T19:29:22.660Z,51.75
2023-01-23T19:32:09.201Z,47.83
2023-01-23T19:34:36.918Z,44.80
2023-01-23T19:37:08.121Z,39.72
2023-01-23T19:39:37.504Z,35.72
2023-01-23T19:42:12.310Z,38.95
2023-01-23T19:44:41.613Z,42.05
2023-01-23T19:47:11.169Z,44.58
2023-01-23T19:49:41.458Z,45.55
2023-01-23T19:52:14.851Z,44.35
2023-01-23T19:54:43.924Z,44.85
2023-01-23T19:57:14.854Z,47.50
2023-01-23T19:59:44.128Z,46.67
2023-01-23T20:02:25.194Z,47.53
2023-01-23T20:04:58.227Z,43.10
2023-01-23T20:07:27.374Z,41.47
2023-01-23T20:09:57.808Z,36.63
2023-01-23T20:12:27.501Z,37.88
2023-01-23T20:14:57.656Z,40.50
2023-01-23T20:17:31.289Z,50.63
2023-01-23T20:20:02.239Z,53.65
2023-01-23T20:22:31.015Z,46.97
2023-01-23T20:25:00.395Z,43.75
2023-01-23T20:27:29.436Z,59.65
2023-01-23T20:30:00.254Z,53.67
2023-01-23T20:32:32.758Z,36.92
2023-01-23T20:35:01.321Z,34.97
2023-01-23T20:37:30.809Z,30.05
2023-01-23T20:39:59.685Z,32.38
2023-01-23T20:42:28.350Z,28.52
2023-01-23T20:44:56.803Z,31.60
2023-01-23T20:47:27.452Z,28.38
2023-01-23T20:49:55.924Z,30.42
2023-01-23T20:52:44.385Z,32.20
2023-01-23T20:55:12.803Z,32.08
2023-01-23T20:57:59.834Z,36.10
2023-01-23T21:00:28.655Z,35.70
2023-01-23T21:02:57.350Z,32.22
2023-01-23T21:05:26.098Z,31.87
2023-01-23T21:07:55.479Z,34.10
2023-01-23T21:10:25.558Z,35.28
2023-01-23T21:12:56.450Z,32.60
2023-01-23T21:15:25.396Z,29.10
2023-01-23T21:17:53.329Z,30.30
2023-01-23T21:20:23.688Z,27.95
2023-01-23T21:22:54.657Z,27.10
2023-01-23T21:25:23.426Z,20.95
2023-01-23T21:27:51.604Z,25.05
2023-01-23T21:30:19.528Z,31.37
2023-01-23T21:32:49.221Z,26.25
2023-01-23T21:35:19.224Z,27.62
2023-01-23T21:37:46.821Z,23.23
2023-01-23T21:40:14.423Z,21.15
2023-01-23T21:42:42.699Z,26.12
2023-01-23T21:45:10.567Z,24.58
2023-01-23T21:47:37.981Z,26.67
2023-01-23T21:50:06.432Z,21.87
2023-01-23T21:52:33.839Z,18.48
2023-01-23T21:55:01.231Z,17.67
2023-01-23T21:57:28.976Z,14.52
2023-01-23T22:00:15.229Z,12.00
2023-01-23T22:02:42.981Z,16.37
2023-01-23T22:05:10.527Z,13.98
2023-01-23T22:07:37.968Z,14.63
2023-01-23T22:10:07.362Z,17.77
2023-01-23T22:12:34.815Z,20.33
2023-01-23T22:15:02.253Z,24.50
2023-01-23T22:17:30.404Z,28.80
2023-01-23T22:19:57.821Z,22.83
2023-01-23T22:22:26.296Z,26.52
2023-01-23T22:24:53.946Z,21.83
2023-01-23T22:27:23.264Z,24.20
2023-01-23T22:29:50.702Z,24.27
2023-01-23T22:32:18.578Z,26.35
2023-01-23T22:34:47.471Z,25.15
2023-01-23T22:37:15.236Z,23.48
2023-01-23T22:39:44.009Z,26.12
2023-01-23T22:42:11.405Z,23.65
2023-01-23T22:44:39.945Z,25.52
2023-01-23T22:47:08.796Z,22.10
2023-01-23T22:49:36.286Z,26.27
2023-01-23T22:52:03.834Z,29.50
2023-01-23T22:54:31.507Z,26.87
2023-01-23T22:56:58.926Z,30.12
2023-01-23T22:59:26.304Z,22.83
2023-01-23T23:01:54.018Z,22.92
2023-01-23T23:04:22.345Z,23.92
2023-01-23T23:06:49.737Z,26.95
2023-01-23T23:09:17.531Z,27.40
2023-01-23T23:11:47.450Z,26.87
2023-01-23T23:14:14.840Z,27.15
2023-01-23T23:16:42.603Z,23.23
2023-01-23T23:19:10.430Z,27.90
2023-01-23T23:21:38.266Z,25.45
2023-01-23T23:24:07.686Z,26.35
2023-01-23T23:26:35.169Z,24.30
2023-01-23T23:29:03.411Z,21.75
2023-01-23T23:31:31.417Z,21.95
2023-01-23T23:33:59.031Z,24.17
2023-01-23T23:36:26.819Z,22.55
2023-01-23T23:38:54.608Z,22.85
2023-01-23T23:41:22.310Z,22.33
2023-01-23T23:43:49.782Z,22.33
2023-01-23T23:46:18.041Z,23.60
2023-01-23T23:48:47.851Z,18.45
2023-01-23T23:51:17.279Z,18.98
2023-01-23T23:53:45.987Z,18.05
2023-01-23T23:56:28.013Z,18.92
2023-01-23T23:58:56.309Z,16.35
